Terminal Aerodrome Forecast
Issued by NWS Knoxville/Tri Cities, TN

Home | Current Version | Previous Version | Text Only | Print | Product List | Glossary On
Versions: 1 2 3 4 5 6 7 8 9 10 11 12 13 14 15 16 17 18 19 20 21 22 23 24 25 26 27
000
FTUS44 KMRX 221120
TAFTRI
TAF
KTRI 221120Z 2212/2312 33006KT P6SM OVC040
      TEMPO 2212/2215 BKN025
     FM221600 31009KT P6SM BKN040
     FM222200 33003KT P6SM SCT050
     FM230600 00000KT 4SM BR SCT250=

USA.gov is the U.S. government's official web portal to all federal, state and local government web resources and services.